createdAt,value
2023-09-04T00:00:55.107Z,100.00
2023-09-04T00:03:22.268Z,100.00
2023-09-04T00:05:50.086Z,100.00
2023-09-04T00:08:17.317Z,100.00
2023-09-04T00:10:45.465Z,100.00
2023-09-04T00:13:14.047Z,100.00
2023-09-04T00:15:41.251Z,100.00
2023-09-04T00:18:09.281Z,100.00
2023-09-04T00:20:36.496Z,100.00
2023-09-04T00:23:03.836Z,100.00
2023-09-04T00:25:30.908Z,100.00
2023-09-04T00:27:59.296Z,100.00
2023-09-04T00:30:26.845Z,100.00
2023-09-04T00:32:54.105Z,100.00
2023-09-04T00:35:23.016Z,100.00
2023-09-04T00:37:50.542Z,100.00
2023-09-04T00:40:18.076Z,100.00
2023-09-04T00:42:45.165Z,100.00
2023-09-04T00:45:15.227Z,100.00
2023-09-04T00:47:43.925Z,100.00
2023-09-04T00:50:24.409Z,100.00
2023-09-04T00:52:54.682Z,100.00
2023-09-04T00:55:22.196Z,100.00
2023-09-04T00:57:49.610Z,100.00
2023-09-04T01:00:20.946Z,100.00
2023-09-04T01:02:48.414Z,100.00
2023-09-04T01:05:15.585Z,100.00
2023-09-04T01:07:43.658Z,100.00
2023-09-04T01:10:13.543Z,100.00
2023-09-04T01:13:13.986Z,100.00
2023-09-04T01:15:41.064Z,100.00
2023-09-04T01:18:09.659Z,100.00
2023-09-04T01:20:37.316Z,100.00
2023-09-04T01:23:05.110Z,100.00
2023-09-04T01:25:53.571Z,100.00
2023-09-04T01:28:24.456Z,100.00
2023-09-04T01:31:28.412Z,100.00
2023-09-04T01:34:03.532Z,100.00
2023-09-04T01:36:34.049Z,100.00
2023-09-04T01:39:01.412Z,100.00
2023-09-04T01:41:28.464Z,100.00
2023-09-04T01:43:55.722Z,100.00
2023-09-04T01:46:23.481Z,100.00
2023-09-04T01:48:50.906Z,100.00
2023-09-04T01:51:18.008Z,100.00
2023-09-04T01:53:45.112Z,100.00
2023-09-04T01:56:12.207Z,100.00
2023-09-04T01:58:39.230Z,100.00
2023-09-04T02:01:06.265Z,100.00
2023-09-04T02:03:34.620Z,100.00
2023-09-04T02:06:01.783Z,100.00
2023-09-04T02:08:28.758Z,100.00
2023-09-04T02:10:58.928Z,100.00
2023-09-04T02:13:25.908Z,100.00
2023-09-04T02:15:53.037Z,100.00
2023-09-04T02:18:20.119Z,100.00
2023-09-04T02:20:49.784Z,100.00
2023-09-04T02:23:16.771Z,100.00
2023-09-04T02:25:43.883Z,100.00
2023-09-04T02:28:10.891Z,100.00
2023-09-04T02:30:40.819Z,100.00
2023-09-04T02:33:07.880Z,100.00
2023-09-04T02:36:07.980Z,100.00
2023-09-04T02:38:39.889Z,100.00
2023-09-04T02:41:06.941Z,100.00
2023-09-04T02:43:33.940Z,100.00
2023-09-04T02:46:01.056Z,100.00
2023-09-04T02:48:28.252Z,100.00
2023-09-04T02:51:00.018Z,100.00
2023-09-04T02:53:30.270Z,100.00
2023-09-04T02:55:57.672Z,100.00
2023-09-04T02:58:25.765Z,100.00
2023-09-04T03:00:53.206Z,100.00
2023-09-04T03:03:20.871Z,100.00
2023-09-04T03:05:48.668Z,100.00
2023-09-04T03:08:16.186Z,100.00
2023-09-04T03:10:43.339Z,100.00
2023-09-04T03:13:10.378Z,100.00
2023-09-04T03:15:38.284Z,100.00
2023-09-04T03:18:07.413Z,100.00
2023-09-04T03:20:35.201Z,100.00
2023-09-04T03:23:02.546Z,100.00
2023-09-04T03:25:29.764Z,100.00
2023-09-04T03:27:57.441Z,100.00
2023-09-04T03:30:25.505Z,100.00
2023-09-04T03:32:52.795Z,100.00
2023-09-04T03:35:20.157Z,100.00
2023-09-04T03:37:47.183Z,100.00
2023-09-04T03:40:26.239Z,100.00
2023-09-04T03:42:54.500Z,100.00
2023-09-04T03:45:22.091Z,100.00
2023-09-04T03:47:50.347Z,100.00
2023-09-04T03:50:17.961Z,100.00
2023-09-04T03:52:45.308Z,100.00
2023-09-04T03:55:13.212Z,100.00
2023-09-04T03:57:52.724Z,100.00
2023-09-04T04:00:21.825Z,100.00
2023-09-04T04:02:50.521Z,100.00
2023-09-04T04:05:19.076Z,100.00
2023-09-04T04:07:46.284Z,100.00
2023-09-04T04:10:13.566Z,100.00
2023-09-04T04:12:41.212Z,100.00
2023-09-04T04:15:09.499Z,100.00
2023-09-04T04:17:37.749Z,100.00
2023-09-04T04:20:13.850Z,100.00
2023-09-04T04:22:42.103Z,100.00
2023-09-04T04:25:10.217Z,100.00
2023-09-04T04:27:37.322Z,100.00
2023-09-04T04:30:04.985Z,100.00
2023-09-04T04:32:32.321Z,100.00
2023-09-04T04:34:59.325Z,100.00
2023-09-04T04:37:26.531Z,100.00
2023-09-04T04:39:54.003Z,100.00
2023-09-04T04:42:21.224Z,100.00
2023-09-04T04:44:48.907Z,100.00
2023-09-04T04:47:16.865Z,100.00
2023-09-04T04:49:45.708Z,100.00
2023-09-04T04:52:12.747Z,100.00
2023-09-04T04:54:40.011Z,100.00
2023-09-04T04:57:07.089Z,100.00
2023-09-04T04:59:34.049Z,100.00
2023-09-04T05:02:01.651Z,100.00
2023-09-04T05:04:30.578Z,100.00
2023-09-04T05:06:58.648Z,100.00
2023-09-04T05:09:25.754Z,100.00
2023-09-04T05:11:52.859Z,100.00
2023-09-04T05:14:19.928Z,100.00
2023-09-04T05:16:47.026Z,100.00
2023-09-04T05:19:14.168Z,100.00
2023-09-04T05:21:55.437Z,100.00
2023-09-04T05:24:24.459Z,100.00
2023-09-04T05:26:51.890Z,100.00
2023-09-04T05:29:19.029Z,100.00
2023-09-04T05:31:46.020Z,100.00
2023-09-04T05:34:13.022Z,100.00
2023-09-04T05:36:39.983Z,100.00
2023-09-04T05:39:07.008Z,100.00
2023-09-04T05:41:33.967Z,100.00
2023-09-04T05:44:01.295Z,100.00
2023-09-04T05:46:28.310Z,100.00
2023-09-04T05:48:55.370Z,100.00
2023-09-04T05:51:22.402Z,100.00
2023-09-04T05:53:49.432Z,100.00
2023-09-04T05:56:18.147Z,100.00
2023-09-04T05:58:51.169Z,100.00
2023-09-04T06:01:20.178Z,100.00
2023-09-04T06:03:48.091Z,100.00
2023-09-04T06:06:16.151Z,100.00
2023-09-04T06:08:43.179Z,100.00
2023-09-04T06:11:10.149Z,100.00
2023-09-04T06:13:37.126Z,100.00
2023-09-04T06:16:05.039Z,100.00
2023-09-04T06:18:32.404Z,100.00
2023-09-04T06:20:59.587Z,100.00
2023-09-04T06:23:26.851Z,100.00
2023-09-04T06:25:53.840Z,100.00
2023-09-04T06:28:20.847Z,100.00
2023-09-04T06:30:47.912Z,100.00
2023-09-04T06:33:14.970Z,100.00
2023-09-04T06:35:41.983Z,100.00
2023-09-04T06:38:08.928Z,100.00
2023-09-04T06:40:37.393Z,100.00
2023-09-04T06:43:06.308Z,100.00
2023-09-04T06:45:33.352Z,100.00
2023-09-04T06:48:00.503Z,100.00
2023-09-04T06:50:27.546Z,100.00
2023-09-04T06:52:54.499Z,100.00
2023-09-04T06:55:21.702Z,100.00
2023-09-04T06:57:48.698Z,100.00
2023-09-04T07:00:15.936Z,100.00
2023-09-04T07:02:42.984Z,100.00
2023-09-04T07:05:10.274Z,100.00
2023-09-04T07:07:38.974Z,100.00
2023-09-04T07:10:07.535Z,100.00
2023-09-04T07:12:36.728Z,100.00
2023-09-04T07:15:04.978Z,100.00
2023-09-04T07:17:32.116Z,100.00
2023-09-04T07:19:59.398Z,100.00
2023-09-04T07:22:26.353Z,100.00
2023-09-04T07:24:53.921Z,100.00
2023-09-04T07:27:20.996Z,100.00
2023-09-04T07:29:48.369Z,100.00
2023-09-04T07:32:15.384Z,100.00
2023-09-04T07:34:42.433Z,100.00
2023-09-04T07:37:09.485Z,100.00
2023-09-04T07:39:37.167Z,100.00
2023-09-04T07:42:04.892Z,100.00
2023-09-04T07:44:33.186Z,97.35
2023-09-04T07:47:00.314Z,93.93
2023-09-04T07:49:27.292Z,93.71
2023-09-04T07:51:54.836Z,90.86
2023-09-04T07:54:22.889Z,86.68
2023-09-04T07:56:49.932Z,86.99
2023-09-04T07:59:17.055Z,84.67
2023-09-04T08:01:44.093Z,85.49
2023-09-04T08:04:11.385Z,84.95
2023-09-04T08:06:38.397Z,82.95
2023-09-04T08:09:05.513Z,82.36
2023-09-04T08:11:32.716Z,81.89
2023-09-04T08:13:59.967Z,80.77
2023-09-04T08:16:27.244Z,79.55
2023-09-04T08:18:54.565Z,78.33
2023-09-04T08:21:21.629Z,80.33
2023-09-04T08:23:48.662Z,78.98
2023-09-04T08:26:16.609Z,75.18
2023-09-04T08:28:44.223Z,77.48
2023-09-04T08:31:12.347Z,73.85
2023-09-04T08:33:39.450Z,74.67
2023-09-04T08:36:06.730Z,73.93
2023-09-04T08:38:33.817Z,74.01
2023-09-04T08:41:06.872Z,73.15
2023-09-04T08:43:33.896Z,72.24
2023-09-04T08:46:03.229Z,73.67
2023-09-04T08:48:34.094Z,71.90
2023-09-04T08:51:01.219Z,72.28
2023-09-04T08:53:28.311Z,69.00
2023-09-04T08:55:55.871Z,67.08
2023-09-04T08:58:23.178Z,66.52
2023-09-04T09:00:50.681Z,65.72
2023-09-04T09:03:18.177Z,64.77
2023-09-04T09:05:48.693Z,64.00
2023-09-04T09:08:19.088Z,63.06
2023-09-04T09:10:49.446Z,59.08
2023-09-04T09:13:16.922Z,61.47
2023-09-04T09:15:44.354Z,60.74
2023-09-04T09:18:11.482Z,62.65
2023-09-04T09:20:43.817Z,61.98
2023-09-04T09:23:11.257Z,61.41
2023-09-04T09:25:39.551Z,61.72
2023-09-04T09:28:10.193Z,61.86
2023-09-04T09:30:40.465Z,61.63
2023-09-04T09:33:14.378Z,61.80
2023-09-04T09:35:41.860Z,60.26
2023-09-04T09:38:10.028Z,58.92
2023-09-04T09:40:38.402Z,59.62
2023-09-04T09:43:05.522Z,58.68
2023-09-04T09:45:36.991Z,58.57
2023-09-04T09:48:06.490Z,58.15
2023-09-04T09:50:34.264Z,59.64
2023-09-04T09:53:02.944Z,59.83
2023-09-04T09:55:33.602Z,58.90
2023-09-04T09:58:02.645Z,59.01
2023-09-04T10:00:30.525Z,58.93
2023-09-04T10:02:59.815Z,56.83
2023-09-04T10:05:27.729Z,55.79
2023-09-04T10:08:02.674Z,54.59
2023-09-04T10:10:38.824Z,55.67
2023-09-04T10:13:18.329Z,54.42
2023-09-04T10:15:49.020Z,49.95
2023-09-04T10:18:23.556Z,48.01
2023-09-04T10:20:53.011Z,50.21
2023-09-04T10:23:25.937Z,51.19
2023-09-04T10:26:14.840Z,49.60
2023-09-04T10:28:45.318Z,48.16
2023-09-04T10:31:14.332Z,48.02
2023-09-04T10:33:42.456Z,48.95
2023-09-04T10:36:10.688Z,47.53
2023-09-04T10:38:38.580Z,46.20
2023-09-04T10:41:09.284Z,47.27
2023-09-04T10:43:43.336Z,48.06
2023-09-04T10:46:14.533Z,48.02
2023-09-04T10:48:53.249Z,44.83
2023-09-04T10:51:26.195Z,45.72
2023-09-04T10:53:53.175Z,44.78
2023-09-04T10:56:20.433Z,44.35
2023-09-04T10:59:07.747Z,44.99
2023-09-04T11:01:38.252Z,43.33
2023-09-04T11:04:08.882Z,43.30
2023-09-04T11:06:41.517Z,43.22
2023-09-04T11:09:13.112Z,44.73
2023-09-04T11:11:40.374Z,44.33
2023-09-04T11:14:07.612Z,44.83
2023-09-04T11:16:39.718Z,43.20
2023-09-04T11:19:16.169Z,41.91
2023-09-04T11:21:47.971Z,43.27
2023-09-04T11:24:15.512Z,43.20
2023-09-04T11:26:42.534Z,43.69
2023-09-04T11:29:09.635Z,42.61
2023-09-04T11:31:36.713Z,43.61
2023-09-04T11:34:05.937Z,43.24
2023-09-04T11:36:38.651Z,44.40
2023-09-04T11:39:16.176Z,44.58
2023-09-04T11:41:43.188Z,43.93
2023-09-04T11:44:10.352Z,42.99
2023-09-04T11:46:37.841Z,43.29
2023-09-04T11:49:05.219Z,44.13
2023-09-04T11:51:37.044Z,43.59
2023-09-04T11:54:08.166Z,41.84
2023-09-04T11:56:36.072Z,42.48
2023-09-04T11:59:06.864Z,41.52
2023-09-04T12:01:34.173Z,41.33
2023-09-04T12:04:03.483Z,42.20
2023-09-04T12:06:30.898Z,42.19
2023-09-04T12:08:59.291Z,41.51
2023-09-04T12:11:28.547Z,41.18
2023-09-04T12:13:56.371Z,42.26
2023-09-04T12:16:23.529Z,41.41
2023-09-04T12:18:50.741Z,41.06
2023-09-04T12:21:17.751Z,40.03
2023-09-04T12:23:48.043Z,39.82
2023-09-04T12:26:17.634Z,40.04
2023-09-04T12:28:45.452Z,39.50
2023-09-04T12:31:12.829Z,37.92
2023-09-04T12:33:42.184Z,36.99
2023-09-04T12:36:12.359Z,36.92
2023-09-04T12:38:40.752Z,37.05
2023-09-04T12:41:08.272Z,38.12
2023-09-04T12:43:35.767Z,34.18
2023-09-04T12:46:03.549Z,35.30
2023-09-04T12:48:30.671Z,35.52
2023-09-04T12:50:57.687Z,34.93
2023-09-04T12:53:25.110Z,35.83
2023-09-04T12:55:52.374Z,35.49
2023-09-04T12:58:19.870Z,36.10
2023-09-04T13:00:47.321Z,34.75
2023-09-04T13:03:14.496Z,33.75
2023-09-04T13:05:41.951Z,33.97
2023-09-04T13:08:08.986Z,33.38
2023-09-04T13:10:36.292Z,33.93
2023-09-04T13:13:03.466Z,34.28
2023-09-04T13:15:31.034Z,33.43
2023-09-04T13:17:58.728Z,33.40
2023-09-04T13:20:26.008Z,32.12
2023-09-04T13:22:53.371Z,32.13
2023-09-04T13:25:20.514Z,32.60
2023-09-04T13:27:47.529Z,31.36
2023-09-04T13:30:14.684Z,32.82
2023-09-04T13:32:41.918Z,33.51
2023-09-04T13:35:09.593Z,31.46
2023-09-04T13:37:37.857Z,32.15
2023-09-04T13:40:06.142Z,31.44
2023-09-04T13:42:33.568Z,31.33
2023-09-04T13:45:01.356Z,31.60
2023-09-04T13:47:28.792Z,30.22
2023-09-04T13:49:56.648Z,31.16
2023-09-04T13:52:25.439Z,32.24
2023-09-04T13:54:56.830Z,31.55
2023-09-04T13:57:27.060Z,31.15
2023-09-04T13:59:54.133Z,32.12
2023-09-04T14:02:21.200Z,31.15
2023-09-04T14:04:48.287Z,31.88
2023-09-04T14:07:16.053Z,32.71
2023-09-04T14:09:43.500Z,32.82
2023-09-04T14:12:11.459Z,29.75
2023-09-04T14:14:38.552Z,30.90
2023-09-04T14:17:06.634Z,30.69
2023-09-04T14:19:34.054Z,28.92
2023-09-04T14:22:01.064Z,28.33
2023-09-04T14:24:28.108Z,28.69
2023-09-04T14:26:55.160Z,28.52
2023-09-04T14:29:22.276Z,29.05
2023-09-04T14:31:49.418Z,28.76
2023-09-04T14:34:16.522Z,28.57
2023-09-04T14:36:57.011Z,28.06
2023-09-04T14:39:30.491Z,28.44
2023-09-04T14:41:57.481Z,28.97
2023-09-04T14:44:24.504Z,28.76
2023-09-04T14:46:51.521Z,28.77
2023-09-04T14:49:18.565Z,28.26
2023-09-04T14:51:45.573Z,28.00
2023-09-04T14:54:12.799Z,28.82
2023-09-04T14:56:40.057Z,28.85
2023-09-04T14:59:07.386Z,29.29
2023-09-04T15:01:34.534Z,28.72
2023-09-04T15:04:02.448Z,28.63
2023-09-04T15:06:29.927Z,29.86
2023-09-04T15:08:57.133Z,28.98
2023-09-04T15:11:26.448Z,29.29
2023-09-04T15:13:53.534Z,29.42
2023-09-04T15:16:20.514Z,30.24
2023-09-04T15:18:47.532Z,30.16
2023-09-04T15:21:17.634Z,29.44
2023-09-04T15:23:44.624Z,28.61
2023-09-04T15:26:11.627Z,29.00
2023-09-04T15:28:38.637Z,29.29
2023-09-04T15:31:05.712Z,29.43
2023-09-04T15:33:32.721Z,30.35
2023-09-04T15:36:02.608Z,31.51
2023-09-04T15:38:32.042Z,31.13
2023-09-04T15:40:59.920Z,31.91
2023-09-04T15:43:26.973Z,32.05
2023-09-04T15:45:55.513Z,32.50
2023-09-04T15:48:25.260Z,33.19
2023-09-04T15:50:52.553Z,32.83
2023-09-04T15:53:24.462Z,32.06
2023-09-04T15:55:56.794Z,32.61
2023-09-04T15:58:25.178Z,32.76
2023-09-04T16:00:55.733Z,32.98
2023-09-04T16:03:22.848Z,33.85
2023-09-04T16:05:49.995Z,33.68
2023-09-04T16:08:18.176Z,34.35
2023-09-04T16:10:48.586Z,35.17
2023-09-04T16:13:20.772Z,35.08
2023-09-04T16:15:47.828Z,36.61
2023-09-04T16:18:14.804Z,37.01
2023-09-04T16:20:46.687Z,37.88
2023-09-04T16:23:17.807Z,38.34
2023-09-04T16:25:45.448Z,38.73
2023-09-04T16:28:12.768Z,39.40
2023-09-04T16:30:40.928Z,40.17
2023-09-04T16:33:12.867Z,40.15
2023-09-04T16:35:42.576Z,40.95
2023-09-04T16:38:09.812Z,41.27
2023-09-04T16:40:44.292Z,41.42
2023-09-04T16:43:11.499Z,41.59
2023-09-04T16:45:38.742Z,42.35
2023-09-04T16:48:08.761Z,42.37
2023-09-04T16:50:35.951Z,42.84
2023-09-04T16:53:03.919Z,42.75
2023-09-04T16:55:33.585Z,42.74
2023-09-04T16:58:00.708Z,42.81
2023-09-04T17:00:27.947Z,43.35
2023-09-04T17:02:55.216Z,43.34
2023-09-04T17:05:23.726Z,43.42
2023-09-04T17:07:50.702Z,43.72
2023-09-04T17:10:19.160Z,44.38
2023-09-04T17:12:46.190Z,44.04
2023-09-04T17:15:13.174Z,44.51
2023-09-04T17:17:40.176Z,45.20
2023-09-04T17:20:08.402Z,45.37
2023-09-04T17:22:35.934Z,45.40
2023-09-04T17:25:02.907Z,46.13
2023-09-04T17:27:29.929Z,46.56
2023-09-04T17:29:57.009Z,46.57
2023-09-04T17:32:24.614Z,46.62
2023-09-04T17:34:51.647Z,47.27
2023-09-04T17:37:18.670Z,48.72
2023-09-04T17:39:45.675Z,48.08
2023-09-04T17:42:15.281Z,48.94
2023-09-04T17:44:42.536Z,49.15
2023-09-04T17:47:09.633Z,49.62
2023-09-04T17:49:37.846Z,49.76
2023-09-04T17:52:05.393Z,50.49
2023-09-04T17:54:32.691Z,51.11
2023-09-04T17:56:59.648Z,51.04
2023-09-04T17:59:27.153Z,51.63
2023-09-04T18:01:55.417Z,52.41
2023-09-04T18:04:22.476Z,53.14
2023-09-04T18:06:49.464Z,53.43
2023-09-04T18:09:16.452Z,53.61
2023-09-04T18:11:43.468Z,54.01
2023-09-04T18:14:10.517Z,55.10
2023-09-04T18:16:37.492Z,55.20
2023-09-04T18:19:04.767Z,55.95
2023-09-04T18:21:31.881Z,56.12
2023-09-04T18:23:58.910Z,55.95
2023-09-04T18:26:26.258Z,56.12
2023-09-04T18:28:54.212Z,56.45
2023-09-04T18:31:24.588Z,56.67
2023-09-04T18:33:53.098Z,58.12
2023-09-04T18:36:20.257Z,58.26
2023-09-04T18:38:47.831Z,58.55
2023-09-04T18:41:16.800Z,58.53
2023-09-04T18:43:47.486Z,59.00
2023-09-04T18:46:14.691Z,59.09
2023-09-04T18:48:41.718Z,59.41
2023-09-04T18:51:08.679Z,60.09
2023-09-04T18:53:37.636Z,60.42
2023-09-04T18:56:05.774Z,61.02
2023-09-04T18:58:33.716Z,61.34
2023-09-04T19:01:04.046Z,61.71
2023-09-04T19:03:31.363Z,62.04
2023-09-04T19:05:58.567Z,62.16
2023-09-04T19:08:25.946Z,62.54
2023-09-04T19:10:54.610Z,63.43
2023-09-04T19:13:22.656Z,63.33
2023-09-04T19:15:50.162Z,62.99
2023-09-04T19:18:17.911Z,63.57
2023-09-04T19:20:44.895Z,63.99
2023-09-04T19:23:11.891Z,64.17
2023-09-04T19:25:38.925Z,64.51
2023-09-04T19:28:06.718Z,65.22
2023-09-04T19:30:33.713Z,64.83
2023-09-04T19:33:01.421Z,65.17
2023-09-04T19:35:28.537Z,65.88
2023-09-04T19:37:55.566Z,65.60
2023-09-04T19:40:22.542Z,66.58
2023-09-04T19:42:49.577Z,66.05
2023-09-04T19:45:17.575Z,66.77
2023-09-04T19:47:44.677Z,66.89
2023-09-04T19:50:12.229Z,67.07
2023-09-04T19:52:40.124Z,67.07
2023-09-04T19:55:08.011Z,67.46
2023-09-04T19:57:37.633Z,67.94
2023-09-04T20:00:07.870Z,67.93
2023-09-04T20:02:43.771Z,68.11
2023-09-04T20:05:10.993Z,68.23
2023-09-04T20:07:38.749Z,68.54
2023-09-04T20:10:06.849Z,68.75
2023-09-04T20:12:33.848Z,68.23
2023-09-04T20:15:00.927Z,69.41
2023-09-04T20:17:27.944Z,69.08
2023-09-04T20:19:55.097Z,69.54
2023-09-04T20:22:23.874Z,71.37
2023-09-04T20:24:51.529Z,69.95
2023-09-04T20:27:18.537Z,69.90
2023-09-04T20:29:45.561Z,69.74
2023-09-04T20:32:16.131Z,70.45
2023-09-04T20:34:43.265Z,71.71
2023-09-04T20:37:10.390Z,71.21
2023-09-04T20:39:37.442Z,71.54
2023-09-04T20:42:08.371Z,71.76
2023-09-04T20:44:36.062Z,71.93
2023-09-04T20:47:06.682Z,71.88
2023-09-04T20:49:33.933Z,72.59
2023-09-04T20:52:00.895Z,72.43
2023-09-04T20:54:27.860Z,73.94
2023-09-04T20:56:57.100Z,73.00
2023-09-04T20:59:27.814Z,74.11
2023-09-04T21:01:55.989Z,74.90
2023-09-04T21:04:23.895Z,75.45
2023-09-04T21:06:52.482Z,75.51
2023-09-04T21:09:20.894Z,75.95
2023-09-04T21:12:07.052Z,75.75
2023-09-04T21:14:53.262Z,76.63
2023-09-04T21:17:39.682Z,76.70
2023-09-04T21:20:29.373Z,75.86
2023-09-04T21:23:15.803Z,78.24
2023-09-04T21:26:01.878Z,77.74
2023-09-04T21:28:50.841Z,77.81
2023-09-04T21:31:40.179Z,78.40
2023-09-04T21:34:26.317Z,79.49
2023-09-04T21:37:12.294Z,79.49
2023-09-04T21:39:58.530Z,79.59
2023-09-04T21:42:44.579Z,79.40
2023-09-04T21:45:33.711Z,80.84
2023-09-04T21:48:19.853Z,80.13
2023-09-04T21:51:06.132Z,79.98
2023-09-04T21:53:52.072Z,81.28
2023-09-04T21:56:38.188Z,81.79
2023-09-04T21:59:23.719Z,81.59
2023-09-04T22:02:09.229Z,82.22
2023-09-04T22:04:54.712Z,82.34
2023-09-04T22:07:40.607Z,83.15
2023-09-04T22:10:26.372Z,83.07
2023-09-04T22:13:12.242Z,83.22
2023-09-04T22:15:57.980Z,82.44
2023-09-04T22:18:48.209Z,81.89
2023-09-04T22:21:34.476Z,82.24
2023-09-04T22:24:19.857Z,83.68
2023-09-04T22:27:05.471Z,83.39
2023-09-04T22:29:52.917Z,84.03
2023-09-04T22:32:39.531Z,83.75
2023-09-04T22:35:25.965Z,83.58
2023-09-04T22:38:11.604Z,84.50
2023-09-04T22:40:57.540Z,84.73
2023-09-04T22:43:43.155Z,84.61
2023-09-04T22:46:28.942Z,83.99
2023-09-04T22:49:14.563Z,84.92
2023-09-04T22:52:00.148Z,85.35
2023-09-04T22:54:45.625Z,85.23
2023-09-04T22:57:31.358Z,85.46
2023-09-04T23:00:17.107Z,84.53
2023-09-04T23:03:02.744Z,83.93
2023-09-04T23:05:48.245Z,85.03
2023-09-04T23:08:33.716Z,85.95
2023-09-04T23:11:19.701Z,86.53
2023-09-04T23:14:05.134Z,86.39
2023-09-04T23:16:53.289Z,87.28
2023-09-04T23:19:40.292Z,86.91
2023-09-04T23:22:08.195Z,87.00
2023-09-04T23:24:35.510Z,86.79
2023-09-04T23:27:05.382Z,87.41
2023-09-04T23:29:32.624Z,87.43
2023-09-04T23:32:10.921Z,87.05
2023-09-04T23:34:39.435Z,86.59
2023-09-04T23:37:10.230Z,86.46
2023-09-04T23:40:00.363Z,87.22
2023-09-04T23:42:47.767Z,87.34
2023-09-04T23:45:18.376Z,86.80
2023-09-04T23:47:48.924Z,87.42
2023-09-04T23:50:18.427Z,87.19
2023-09-04T23:52:46.403Z,87.76
2023-09-04T23:55:18.328Z,87.68
2023-09-04T23:57:49.819Z,87.69
